Time;durP1;ratioP1;P1;durP2;ratioP2;P2;SDS_P1;SDS_P2;PMS_P1;PMS_P2;Temp;Humidity;BMP_temperature;BMP_pressure;BME280_temperature;BME280_humidity;BME280_pressure;Samples;Min_cycle;Max_cycle;Signal;HPM_P1;HPM_P2
2024/02/05 00:01:25;;;;;;;0.10;0.10;;;4.80;99.90;;;;;;5007352;28;20087;-82
2024/02/05 00:03:51;;;;;;;0.30;0.30;;;4.90;99.90;;;;;;5007353;28;20076;-82
2024/02/05 00:06:17;;;;;;;0.10;0.10;;;5.00;99.90;;;;;;5008585;28;21077;-84
2024/02/05 00:08:44;;;;;;;0.30;0.30;;;4.80;99.90;;;;;;5008917;28;20037;-85
2024/02/05 00:11:09;;;;;;;0.10;0.10;;;4.80;99.90;;;;;;5008333;28;20091;-83
2024/02/05 00:13:35;;;;;;;0.30;0.30;;;4.80;99.90;;;;;;5011143;28;20034;-82
2024/02/05 00:16:01;;;;;;;0.10;0.10;;;4.80;99.90;;;;;;5010734;28;20046;-81
2024/02/05 00:18:26;;;;;;;0.30;0.30;;;4.70;99.90;;;;;;5006539;28;20033;-82
2024/02/05 00:20:55;;;;;;;0.10;0.10;;;4.70;99.90;;;;;;5010309;28;20033;-81
2024/02/05 00:23:21;;;;;;;0.10;0.10;;;4.70;99.90;;;;;;5007592;28;20058;-80
2024/02/05 00:25:47;;;;;;;0.15;0.15;;;4.80;99.90;;;;;;5003910;28;20063;-80
2024/02/05 00:28:12;;;;;;;0.10;0.10;;;4.90;99.90;;;;;;5010903;28;20036;-81
2024/02/05 00:30:38;;;;;;;2.03;0.75;;;4.90;99.90;;;;;;5007985;28;20036;-81
2024/02/05 00:33:05;;;;;;;0.10;0.10;;;4.70;99.90;;;;;;5008352;28;20018;-80
2024/02/05 00:35:31;;;;;;;0.10;0.10;;;4.70;99.90;;;;;;5009604;28;20029;-80
2024/02/05 00:37:57;;;;;;;0.83;0.83;;;4.70;99.90;;;;;;5012463;28;20034;-81
2024/02/05 00:40:23;;;;;;;2.08;1.98;;;4.80;99.90;;;;;;5006767;28;20034;-82
2024/02/05 00:42:49;;;;;;;0.20;0.20;;;5.00;99.90;;;;;;5006748;28;20041;-81
2024/02/05 00:45:15;;;;;;;0.10;0.10;;;4.90;99.90;;;;;;5012259;28;20071;-80
2024/02/05 00:47:41;;;;;;;0.10;0.10;;;4.90;99.90;;;;;;5011160;28;20430;-80
2024/02/05 00:50:08;;;;;;;0.30;0.30;;;4.90;99.90;;;;;;5006412;28;20037;-80
2024/02/05 00:52:33;;;;;;;0.10;0.10;;;4.80;99.90;;;;;;5005712;28;20109;-80
2024/02/05 00:54:59;;;;;;;0.10;0.10;;;4.70;99.90;;;;;;5006580;28;20204;-81
2024/02/05 00:57:26;;;;;;;0.10;0.10;;;4.50;99.90;;;;;;5003577;28;20038;-80
2024/02/05 00:59:53;;;;;;;0.10;0.10;;;4.60;99.90;;;;;;5007019;28;20026;-80
2024/02/05 01:02:19;;;;;;;0.10;0.10;;;4.50;99.90;;;;;;5006408;28;20057;-80
2024/02/05 01:04:44;;;;;;;0.10;0.10;;;4.50;99.90;;;;;;5006797;28;20029;-81
2024/02/05 01:07:10;;;;;;;0.10;0.10;;;4.40;99.90;;;;;;5005886;28;20129;-81
2024/02/05 01:09:36;;;;;;;0.10;0.10;;;4.40;99.90;;;;;;5006652;28;20639;-83
2024/02/05 01:12:03;;;;;;;2.08;1.98;;;4.30;99.90;;;;;;5010662;28;20033;-83
2024/02/05 01:14:29;;;;;;;0.28;0.28;;;4.60;99.90;;;;;;5004186;28;20045;-83
2024/02/05 01:16:55;;;;;;;0.13;0.13;;;4.60;99.90;;;;;;5007650;28;20064;-83
2024/02/05 01:19:22;;;;;;;0.13;0.13;;;4.40;99.90;;;;;;5006399;28;20028;-82
2024/02/05 01:21:47;;;;;;;0.10;0.10;;;4.40;99.90;;;;;;5006744;28;20057;-82
2024/02/05 01:24:13;;;;;;;0.25;0.25;;;4.40;99.90;;;;;;5005743;28;20050;-83
2024/02/05 01:26:39;;;;;;;0.10;0.10;;;4.40;99.90;;;;;;5008860;28;20022;-83
2024/02/05 01:29:06;;;;;;;0.20;0.20;;;4.40;99.90;;;;;;5011120;28;20025;-82
2024/02/05 01:31:32;;;;;;;0.10;0.10;;;4.60;99.90;;;;;;5006348;28;20034;-81
2024/02/05 01:33:59;;;;;;;0.10;0.10;;;4.60;99.90;;;;;;5008738;28;20037;-82
2024/02/05 01:36:25;;;;;;;0.10;0.10;;;4.50;99.90;;;;;;5005866;28;20275;-83
2024/02/05 01:38:51;;;;;;;0.20;0.20;;;4.30;99.90;;;;;;5013699;28;20034;-82
2024/02/05 01:41:16;;;;;;;0.20;0.20;;;4.40;99.90;;;;;;5004847;28;20038;-81
2024/02/05 01:43:42;;;;;;;0.10;0.10;;;4.40;99.90;;;;;;5011644;28;20076;-81
2024/02/05 01:46:16;;;;;;;0.10;0.10;;;4.30;99.90;;;;;;5009917;28;20401;-81
2024/02/05 01:48:43;;;;;;;0.10;0.10;;;4.40;99.90;;;;;;5008336;28;20034;-81
2024/02/05 01:51:13;;;;;;;0.68;0.68;;;4.40;99.90;;;;;;5006098;28;20033;-81
2024/02/05 01:53:40;;;;;;;0.25;0.25;;;4.30;99.90;;;;;;5004711;28;20037;-81
2024/02/05 01:56:09;;;;;;;0.10;0.10;;;4.30;99.90;;;;;;5008356;28;20041;-82
2024/02/05 01:58:37;;;;;;;0.10;0.10;;;4.30;99.90;;;;;;5007168;28;20033;-79
2024/02/05 02:01:06;;;;;;;0.10;0.10;;;4.20;99.90;;;;;;5010303;28;20033;-79
2024/02/05 02:03:32;;;;;;;0.10;0.10;;;4.20;99.90;;;;;;5011176;28;20065;-80
2024/02/05 02:05:58;;;;;;;0.10;0.10;;;4.20;99.90;;;;;;5008606;28;20029;-78
2024/02/05 02:08:26;;;;;;;0.20;0.20;;;4.20;99.90;;;;;;4998937;28;20281;-79
2024/02/05 02:10:53;;;;;;;0.10;0.10;;;4.10;99.90;;;;;;5005234;28;20062;-79
2024/02/05 02:13:19;;;;;;;0.10;0.10;;;4.10;99.90;;;;;;5013593;28;20029;-80
2024/02/05 02:15:48;;;;;;;0.10;0.10;;;4.20;99.90;;;;;;5008596;28;20108;-80
2024/02/05 02:18:16;;;;;;;0.70;0.47;;;4.20;99.90;;;;;;5007515;28;20037;-80
2024/02/05 02:20:45;;;;;;;0.15;0.15;;;4.40;99.90;;;;;;5007968;28;20040;-80
2024/02/05 02:23:26;;;;;;;0.10;0.10;;;4.40;99.90;;;;;;5007304;28;20032;-80
2024/02/05 02:25:52;;;;;;;0.10;0.10;;;4.30;99.90;;;;;;5009011;28;20059;-79
2024/02/05 02:28:18;;;;;;;0.10;0.10;;;4.30;99.90;;;;;;5007668;28;20026;-79
2024/02/05 02:30:45;;;;;;;0.10;0.10;;;4.00;99.90;;;;;;5008465;28;20030;-80
2024/02/05 02:33:30;;;;;;;0.10;0.10;;;4.00;99.90;;;;;;5009544;28;20136;-80
2024/02/05 02:36:00;;;;;;;0.10;0.10;;;4.20;99.90;;;;;;5011388;28;20045;-80
2024/02/05 02:38:28;;;;;;;0.10;0.10;;;4.30;99.90;;;;;;5002323;28;20030;-79
2024/02/05 02:41:01;;;;;;;0.10;0.10;;;4.00;99.90;;;;;;5014303;28;20084;-80
2024/02/05 02:43:31;;;;;;;0.10;0.10;;;4.00;99.90;;;;;;5008738;28;20065;-79
2024/02/05 02:45:58;;;;;;;0.10;0.10;;;4.00;99.90;;;;;;5036927;28;20030;-80
2024/02/05 02:48:25;;;;;;;0.10;0.10;;;3.90;99.90;;;;;;5011019;28;20034;-79
2024/02/05 02:50:51;;;;;;;;;;;3.90;99.90;;;;;;5010724;28;20159;-80
2024/02/05 02:53:17;;;;;;;0.10;0.10;;;3.80;99.90;;;;;;5009747;28;20027;-80
2024/02/05 02:55:43;;;;;;;0.20;0.20;;;3.70;99.90;;;;;;5009437;28;20029;-80
2024/02/05 02:58:09;;;;;;;0.10;0.10;;;3.70;99.90;;;;;;5008514;28;20034;-79
2024/02/05 03:00:34;;;;;;;0.13;0.13;;;3.70;99.90;;;;;;5016113;28;20030;-79
2024/02/05 03:03:00;;;;;;;0.10;0.10;;;3.70;99.90;;;;;;5006782;28;20476;-80
2024/02/05 03:05:26;;;;;;;1.03;0.80;;;3.70;99.90;;;;;;5014520;28;20034;-80
2024/02/05 03:07:51;;;;;;;0.10;0.10;;;3.80;99.90;;;;;;5006968;28;20505;-80
2024/02/05 03:10:17;;;;;;;0.88;0.88;;;3.70;99.90;;;;;;5010116;28;20033;-81
2024/02/05 03:12:43;;;;;;;0.10;0.10;;;3.70;99.90;;;;;;5011242;28;20030;-80
2024/02/05 03:15:09;;;;;;;0.10;0.10;;;3.80;99.90;;;;;;5012196;28;20034;-81
2024/02/05 03:17:34;;;;;;;0.20;0.20;;;3.80;99.90;;;;;;5009711;28;20141;-81
2024/02/05 03:20:00;;;;;;;0.10;0.10;;;3.90;99.90;;;;;;5011734;28;20025;-80
2024/02/05 03:22:25;;;;;;;0.10;0.10;;;3.90;99.90;;;;;;5007121;28;20507;-80
2024/02/05 03:24:52;;;;;;;1.85;1.75;;;3.80;99.90;;;;;;5005656;28;20037;-80
2024/02/05 03:27:17;;;;;;;0.10;0.10;;;3.70;99.90;;;;;;5006691;28;20038;-81
2024/02/05 03:29:43;;;;;;;0.22;0.22;;;3.50;99.90;;;;;;5007224;28;20033;-80
2024/02/05 03:32:09;;;;;;;0.20;0.20;;;3.60;99.90;;;;;;5011536;28;20034;-80
2024/02/05 03:34:34;;;;;;;0.10;0.10;;;3.50;99.90;;;;;;5010558;28;20611;-81
2024/02/05 03:37:00;;;;;;;0.30;0.30;;;3.40;99.90;;;;;;5007658;28;20030;-80
2024/02/05 03:39:26;;;;;;;0.10;0.10;;;3.30;99.90;;;;;;5009912;28;20050;-81
2024/02/05 03:41:52;;;;;;;0.40;0.40;;;3.20;99.90;;;;;;5012335;28;20025;-80
2024/02/05 03:44:18;;;;;;;0.10;0.10;;;3.30;99.90;;;;;;5010903;28;20449;-80
2024/02/05 03:46:43;;;;;;;0.10;0.10;;;3.30;99.90;;;;;;5008128;28;20105;-80
2024/02/05 03:49:09;;;;;;;0.10;0.10;;;3.30;99.90;;;;;;5008913;28;20615;-79
2024/02/05 03:51:35;;;;;;;0.10;0.10;;;3.50;99.90;;;;;;5005892;28;20033;-81
2024/02/05 03:54:07;;;;;;;0.73;0.73;;;3.40;99.90;;;;;;5007109;28;20105;-80
2024/02/05 03:56:33;;;;;;;0.10;0.10;;;3.40;99.90;;;;;;5011619;28;20030;-79
2024/02/05 03:58:58;;;;;;;0.10;0.10;;;3.50;99.90;;;;;;5006007;28;20040;-79
2024/02/05 04:01:24;;;;;;;1.30;1.23;;;3.50;99.90;;;;;;5005825;28;20042;-81
2024/02/05 04:03:50;;;;;;;0.10;0.10;;;3.50;99.90;;;;;;5007452;28;20568;-79
2024/02/05 04:06:16;;;;;;;0.43;0.43;;;3.50;99.90;;;;;;5011189;28;20112;-80
2024/02/05 04:08:41;;;;;;;0.10;0.10;;;3.40;99.90;;;;;;5006926;28;20040;-80
2024/02/05 04:11:07;;;;;;;0.10;0.10;;;3.30;99.90;;;;;;5016303;28;21065;-79
2024/02/05 04:13:33;;;;;;;0.10;0.10;;;3.20;99.90;;;;;;5008787;28;20052;-79
2024/02/05 04:15:59;;;;;;;0.10;0.10;;;3.10;99.90;;;;;;5007446;28;20030;-78
2024/02/05 04:18:24;;;;;;;0.10;0.10;;;3.10;99.90;;;;;;5008085;28;20113;-80
2024/02/05 04:20:56;;;;;;;0.20;0.20;;;3.10;99.90;;;;;;5013279;28;20038;-80
2024/02/05 04:23:24;;;;;;;0.10;0.10;;;3.20;99.90;;;;;;5010837;28;20029;-80
2024/02/05 04:25:50;;;;;;;0.10;0.10;;;3.30;99.90;;;;;;5003446;28;20084;-80
2024/02/05 04:28:15;;;;;;;0.30;0.30;;;3.10;99.90;;;;;;5006716;28;20034;-79
2024/02/05 04:30:42;;;;;;;0.10;0.10;;;3.20;99.90;;;;;;5007526;28;20046;-80
2024/02/05 04:33:07;;;;;;;0.10;0.10;;;3.20;99.90;;;;;;5011534;28;20025;-80
2024/02/05 04:35:33;;;;;;;0.10;0.10;;;3.20;99.90;;;;;;5007702;28;20037;-83
2024/02/05 04:37:59;;;;;;;0.10;0.10;;;3.40;99.90;;;;;;5006166;28;20743;-82
2024/02/05 04:40:24;;;;;;;0.15;0.15;;;3.20;99.90;;;;;;5007334;28;20057;-82
2024/02/05 04:42:50;;;;;;;0.10;0.10;;;3.30;99.90;;;;;;5007332;28;20030;-82
2024/02/05 04:45:17;;;;;;;0.10;0.10;;;3.20;99.90;;;;;;5007052;28;20042;-83
2024/02/05 04:47:43;;;;;;;0.75;0.75;;;3.20;99.90;;;;;;5006780;28;20470;-82
2024/02/05 04:50:08;;;;;;;0.10;0.10;;;3.10;99.90;;;;;;5005753;28;20042;-80
2024/02/05 04:52:34;;;;;;;0.10;0.10;;;3.30;99.90;;;;;;5007017;28;20388;-80
2024/02/05 04:55:00;;;;;;;0.30;0.30;;;3.30;99.90;;;;;;5008000;28;20572;-81
2024/02/05 04:57:25;;;;;;;0.10;0.10;;;3.30;99.90;;;;;;5007650;28;20033;-81
2024/02/05 04:59:51;;;;;;;0.10;0.10;;;3.20;99.90;;;;;;5013032;28;20036;-78
2024/02/05 05:02:17;;;;;;;0.10;0.10;;;3.20;99.90;;;;;;5009829;28;20044;-82
2024/02/05 05:04:43;;;;;;;0.10;0.10;;;3.20;99.90;;;;;;5006832;28;20034;-81
2024/02/05 05:07:08;;;;;;;0.10;0.10;;;3.30;99.90;;;;;;5012435;28;20072;-84
2024/02/05 05:09:34;;;;;;;0.47;0.47;;;3.20;99.90;;;;;;5008534;28;20481;-85
2024/02/05 05:11:59;;;;;;;0.15;0.15;;;3.10;99.90;;;;;;5007615;28;20063;-80
2024/02/05 05:14:25;;;;;;;0.10;0.10;;;3.10;99.90;;;;;;5011135;28;20105;-81
2024/02/05 05:16:51;;;;;;;0.10;0.10;;;3.10;99.90;;;;;;5010046;28;20029;-81
2024/02/05 05:19:17;;;;;;;1.35;0.57;;;3.00;99.90;;;;;;5008256;28;20107;-81
2024/02/05 05:21:43;;;;;;;0.10;0.10;;;3.00;99.90;;;;;;5008117;28;20426;-81
2024/02/05 05:24:10;;;;;;;0.10;0.10;;;2.90;99.90;;;;;;5005535;28;20049;-82
2024/02/05 05:26:37;;;;;;;0.10;0.10;;;2.90;99.90;;;;;;5002632;28;20272;-82
2024/02/05 05:29:04;;;;;;;1.00;1.00;;;2.90;99.90;;;;;;5007342;28;20264;-82
2024/02/05 05:31:29;;;;;;;;;;;2.80;99.90;;;;;;5011786;28;20029;-80
2024/02/05 05:33:55;;;;;;;1.10;0.67;;;2.90;99.90;;;;;;5018021;28;19920;-80
2024/02/05 05:36:21;;;;;;;0.45;0.45;;;3.10;99.90;;;;;;5007222;28;20900;-80
2024/02/05 05:38:46;;;;;;;0.13;0.13;;;2.90;99.90;;;;;;5013572;28;20109;-80
2024/02/05 05:41:12;;;;;;;0.10;0.10;;;3.00;99.90;;;;;;5002756;28;20825;-80
2024/02/05 05:43:38;;;;;;;0.30;0.30;;;3.10;99.90;;;;;;5005826;28;20049;-79
2024/02/05 05:46:03;;;;;;;0.10;0.10;;;2.90;99.90;;;;;;5003800;28;20133;-79
2024/02/05 05:48:29;;;;;;;0.80;0.80;;;2.80;99.90;;;;;;4999609;28;20323;-79
2024/02/05 05:50:55;;;;;;;0.20;0.20;;;2.80;99.90;;;;;;5008567;28;20068;-79
2024/02/05 05:53:20;;;;;;;0.10;0.10;;;2.90;99.90;;;;;;5010164;28;20092;-78
2024/02/05 05:55:48;;;;;;;0.10;0.10;;;2.90;99.90;;;;;;5009907;28;20029;-79
2024/02/05 05:58:14;;;;;;;0.10;0.10;;;2.80;99.90;;;;;;5009846;28;20022;-79
2024/02/05 06:00:40;;;;;;;0.08;0.08;;;2.70;99.90;;;;;;5009661;28;20833;-81
2024/02/05 06:03:06;;;;;;;1.10;1.02;;;2.80;99.90;;;;;;5017727;28;20056;-82
2024/02/05 06:05:31;;;;;;;0.10;0.10;;;2.70;99.90;;;;;;5018100;28;20850;-80
2024/02/05 06:07:57;;;;;;;0.15;0.15;;;2.70;99.90;;;;;;5019453;28;20155;-79
2024/02/05 06:10:23;;;;;;;0.10;0.10;;;2.80;99.90;;;;;;5006025;28;20046;-81
2024/02/05 06:12:48;;;;;;;0.10;0.10;;;2.90;99.90;;;;;;5015573;28;20033;-81
2024/02/05 06:15:14;;;;;;;0.60;0.43;;;2.80;99.90;;;;;;5015070;28;20017;-80
2024/02/05 06:17:40;;;;;;;0.28;0.28;;;2.80;99.90;;;;;;5010791;28;20041;-79
2024/02/05 06:20:07;;;;;;;0.20;0.20;;;2.80;99.90;;;;;;5012948;28;20052;-77
2024/02/05 06:22:35;;;;;;;0.85;0.68;;;2.70;99.90;;;;;;5015574;28;20042;-78
2024/02/05 06:25:00;;;;;;;0.80;0.80;;;2.70;99.90;;;;;;5005531;28;20497;-78
2024/02/05 06:27:26;;;;;;;5.38;2.10;;;2.70;99.90;;;;;;5016584;28;20033;-78
2024/02/05 06:29:52;;;;;;;0.10;0.10;;;2.60;99.90;;;;;;5012803;28;20025;-78
2024/02/05 06:32:17;;;;;;;0.10;0.10;;;2.50;99.90;;;;;;5017525;28;20038;-78
2024/02/05 06:34:44;;;;;;;0.43;0.43;;;2.50;99.90;;;;;;5019225;28;20929;-79
2024/02/05 06:37:10;;;;;;;0.10;0.10;;;2.40;99.90;;;;;;5021982;28;20029;-79
2024/02/05 06:39:36;;;;;;;0.10;0.10;;;2.40;99.90;;;;;;5023600;28;20033;-79
2024/02/05 06:42:02;;;;;;;0.52;0.52;;;2.40;99.90;;;;;;5009262;28;20075;-78
2024/02/05 06:44:27;;;;;;;0.20;0.20;;;2.40;99.90;;;;;;5009287;28;20041;-79
2024/02/05 06:46:53;;;;;;;0.10;0.10;;;2.30;99.90;;;;;;5015072;28;20022;-81
2024/02/05 06:49:20;;;;;;;0.10;0.10;;;2.40;99.90;;;;;;5009374;28;20556;-79
2024/02/05 06:51:46;;;;;;;0.10;0.10;;;2.40;99.90;;;;;;5006777;28;20042;-81
2024/02/05 06:54:12;;;;;;;0.13;0.13;;;2.30;99.90;;;;;;5009311;28;20077;-81
2024/02/05 06:56:37;;;;;;;4.93;2.63;;;2.20;99.90;;;;;;5007174;28;20034;-80
2024/02/05 06:59:03;;;;;;;0.10;0.10;;;2.60;99.90;;;;;;5004443;28;20483;-79
2024/02/05 07:01:29;;;;;;;0.10;0.10;;;2.60;99.90;;;;;;5007981;28;20038;-79
2024/02/05 07:03:55;;;;;;;0.10;0.10;;;2.50;99.90;;;;;;5009380;28;20045;-79
2024/02/05 07:06:21;;;;;;;13.43;4.40;;;2.50;99.90;;;;;;5014346;28;20038;-80
2024/02/05 07:08:46;;;;;;;0.10;0.10;;;2.60;99.90;;;;;;5008433;28;20519;-78
2024/02/05 07:11:13;;;;;;;0.10;0.10;;;2.60;99.90;;;;;;5006935;28;20787;-78
2024/02/05 07:13:39;;;;;;;0.10;0.10;;;2.60;99.90;;;;;;5010592;28;20386;-78
2024/02/05 07:16:14;;;;;;;0.13;0.13;;;2.50;99.90;;;;;;5009943;28;20067;-78
2024/02/05 07:18:40;;;;;;;0.10;0.10;;;2.50;99.90;;;;;;5013028;28;20038;-78
2024/02/05 07:21:06;;;;;;;0.22;0.22;;;2.60;99.90;;;;;;5007289;28;20024;-78
2024/02/05 07:23:32;;;;;;;0.10;0.10;;;2.60;99.90;;;;;;5008365;28;20136;-78
2024/02/05 07:25:58;;;;;;;0.10;0.10;;;2.50;99.90;;;;;;5010248;28;20036;-78
2024/02/05 07:28:23;;;;;;;0.10;0.10;;;2.50;99.90;;;;;;5016921;28;20040;-78
2024/02/05 07:30:49;;;;;;;0.10;0.10;;;2.70;99.90;;;;;;5014110;28;20041;-77
2024/02/05 07:33:15;;;;;;;0.10;0.10;;;2.70;99.90;;;;;;5024214;28;20029;-78
2024/02/05 07:35:40;;;;;;;4.27;3.53;;;2.70;99.90;;;;;;5019889;28;20029;-80
2024/02/05 07:38:06;;;;;;;0.10;0.10;;;2.80;99.90;;;;;;5011195;28;20109;-79
2024/02/05 07:40:32;;;;;;;0.22;0.22;;;2.80;99.90;;;;;;5018595;28;20084;-78
2024/02/05 07:42:57;;;;;;;0.10;0.10;;;2.80;99.90;;;;;;5006684;28;20045;-78
2024/02/05 07:45:23;;;;;;;0.10;0.10;;;2.70;99.90;;;;;;5011146;28;20057;-78
2024/02/05 07:47:49;;;;;;;0.10;0.10;;;2.80;99.90;;;;;;5008986;28;20448;-78
2024/02/05 07:50:14;;;;;;;0.10;0.10;;;2.60;99.90;;;;;;5010050;28;20044;-82
2024/02/05 07:52:40;;;;;;;0.32;0.32;;;2.70;99.90;;;;;;5010282;28;20083;-80
2024/02/05 07:55:06;;;;;;;0.20;0.20;;;2.70;99.90;;;;;;5009205;28;20033;-80
2024/02/05 07:57:32;;;;;;;13.40;2.95;;;2.70;99.90;;;;;;5012208;28;20025;-80
2024/02/05 07:59:58;;;;;;;0.10;0.10;;;2.70;99.90;;;;;;5002356;28;20133;-79
2024/02/05 08:02:25;;;;;;;0.88;0.88;;;2.90;99.90;;;;;;5000772;28;20048;-79
2024/02/05 08:04:51;;;;;;;0.93;0.93;;;2.80;99.90;;;;;;5005803;28;20029;-79
2024/02/05 08:07:17;;;;;;;0.10;0.10;;;2.90;99.90;;;;;;5008629;28;20088;-79
2024/02/05 08:09:43;;;;;;;0.10;0.10;;;2.80;99.90;;;;;;5010442;28;20029;-79
2024/02/05 08:12:09;;;;;;;0.20;0.20;;;2.70;99.90;;;;;;5006251;28;20041;-79
2024/02/05 08:14:34;;;;;;;0.10;0.10;;;2.60;99.90;;;;;;5008529;28;20564;-79
2024/02/05 08:17:00;;;;;;;0.30;0.30;;;2.50;99.90;;;;;;5011300;28;20037;-78
2024/02/05 08:19:26;;;;;;;0.15;0.15;;;2.50;99.90;;;;;;5008067;28;20101;-78
2024/02/05 08:21:51;;;;;;;0.00;0.00;;;2.60;99.90;;;;;;5011111;28;20029;-78
2024/02/05 08:24:18;;;;;;;0.10;0.10;;;2.50;99.90;;;;;;5011849;28;20171;-79
2024/02/05 08:26:43;;;;;;;1.75;1.65;;;2.50;99.90;;;;;;4997937;28;20034;-79
2024/02/05 08:29:09;;;;;;;0.10;0.10;;;2.70;99.90;;;;;;5011007;28;20041;-78
2024/02/05 08:31:36;;;;;;;0.10;0.10;;;2.80;99.90;;;;;;5013578;28;20040;-78
2024/02/05 08:34:02;;;;;;;0.10;0.10;;;2.80;99.90;;;;;;5011489;28;20117;-78
2024/02/05 08:36:29;;;;;;;0.10;0.10;;;3.00;99.90;;;;;;5015646;28;20022;-79
2024/02/05 08:38:55;;;;;;;;;;;2.80;99.90;;;;;;5020772;28;20036;-80
2024/02/05 08:41:21;;;;;;;0.40;0.40;;;2.90;99.90;;;;;;5016355;28;20004;-79
2024/02/05 08:43:46;;;;;;;0.10;0.10;;;2.70;99.90;;;;;;5018614;28;20487;-79
2024/02/05 08:46:12;;;;;;;0.10;0.10;;;2.80;99.90;;;;;;5011645;28;20762;-79
2024/02/05 08:48:41;;;;;;;0.15;0.15;;;2.80;99.90;;;;;;5012330;28;20032;-79
2024/02/05 08:51:07;;;;;;;0.10;0.10;;;3.10;99.90;;;;;;5011399;28;20687;-79
2024/02/05 08:53:33;;;;;;;0.10;0.10;;;3.10;99.90;;;;;;5006840;28;20121;-79
2024/02/05 08:55:59;;;;;;;7.90;4.05;;;3.10;99.90;;;;;;5010062;28;20061;-78
2024/02/05 08:58:25;;;;;;;0.15;0.15;;;2.80;99.90;;;;;;5003611;28;20066;-79
2024/02/05 09:00:51;;;;;;;0.10;0.10;;;3.00;99.90;;;;;;5008464;28;20120;-79
2024/02/05 09:03:17;;;;;;;0.10;0.10;;;3.00;99.90;;;;;;5007491;28;20026;-79
2024/02/05 09:05:43;;;;;;;0.10;0.10;;;3.00;99.90;;;;;;5014750;28;20116;-80
2024/02/05 09:08:09;;;;;;;0.30;0.30;;;3.10;99.90;;;;;;5011317;28;20029;-79
2024/02/05 09:10:36;;;;;;;0.50;0.50;;;3.40;99.90;;;;;;5013846;28;20033;-78
2024/02/05 09:13:02;;;;;;;0.10;0.10;;;3.80;99.90;;;;;;5009868;28;20532;-80
2024/02/05 09:15:29;;;;;;;0.10;0.10;;;4.00;99.90;;;;;;5012237;28;20080;-79
2024/02/05 09:17:55;;;;;;;0.10;0.10;;;3.90;99.90;;;;;;5012950;28;20052;-78
2024/02/05 09:20:21;;;;;;;0.10;0.10;;;4.20;99.90;;;;;;5006448;28;20409;-79
2024/02/05 09:22:48;;;;;;;0.10;0.10;;;4.40;99.90;;;;;;5007721;28;20036;-79
2024/02/05 09:25:14;;;;;;;0.10;0.10;;;4.40;99.90;;;;;;5006821;28;20084;-79
2024/02/05 09:27:40;;;;;;;0.30;0.30;;;4.50;99.90;;;;;;5015039;28;20064;-79
2024/02/05 09:30:06;;;;;;;0.20;0.20;;;4.50;99.90;;;;;;5022559;28;20617;-79
2024/02/05 09:32:33;;;;;;;0.10;0.10;;;4.60;99.90;;;;;;5012829;28;20737;-79
2024/02/05 09:34:59;;;;;;;0.50;0.50;;;4.70;99.90;;;;;;5020702;28;20025;-80
2024/02/05 09:37:25;;;;;;;5.80;2.30;;;4.70;99.90;;;;;;5017660;28;20113;-79
2024/02/05 09:39:51;;;;;;;0.10;0.10;;;4.50;99.90;;;;;;5019195;28;20567;-79
2024/02/05 09:42:16;;;;;;;0.10;0.10;;;4.60;99.90;;;;;;5010783;28;20161;-79
2024/02/05 09:44:49;;;;;;;5.03;4.55;;;4.70;99.90;;;;;;5014924;28;20828;-78
2024/02/05 09:47:18;;;;;;;0.10;0.10;;;4.80;99.90;;;;;;5005595;28;20038;-78
2024/02/05 09:49:49;;;;;;;0.10;0.10;;;4.90;99.90;;;;;;5027734;28;20033;-78
2024/02/05 09:52:16;;;;;;;0.85;0.85;;;5.00;99.90;;;;;;5011256;28;20036;-78
2024/02/05 09:54:46;;;;;;;0.10;0.10;;;4.90;99.90;;;;;;5008324;28;20032;-79
2024/02/05 09:57:12;;;;;;;0.10;0.10;;;4.70;99.90;;;;;;5006720;28;20040;-78
2024/02/05 09:59:41;;;;;;;0.10;0.10;;;4.80;99.90;;;;;;5009049;28;20405;-78
2024/02/05 10:02:07;;;;;;;0.45;0.40;;;4.90;99.90;;;;;;5011306;28;20040;-78
2024/02/05 10:04:41;;;;;;;0.10;0.10;;;4.70;99.90;;;;;;5021360;28;20378;-80
2024/02/05 10:07:11;;;;;;;0.10;0.10;;;5.00;99.90;;;;;;5023731;28;20095;-83
2024/02/05 10:09:39;;;;;;;0.20;0.20;;;5.10;99.90;;;;;;5011514;28;20052;-84
2024/02/05 10:12:08;;;;;;;0.47;0.43;;;5.10;99.90;;;;;;5011128;28;20030;-88
2024/02/05 10:14:34;;;;;;;0.10;0.10;;;5.10;99.90;;;;;;5017640;28;20041;-83
2024/02/05 10:17:00;;;;;;;0.10;0.10;;;5.20;99.90;;;;;;5022397;28;20104;-83
2024/02/05 10:19:26;;;;;;;0.10;0.10;;;5.00;99.90;;;;;;5016716;28;20073;-82
2024/02/05 10:21:53;;;;;;;0.10;0.10;;;5.10;99.90;;;;;;5012001;28;20029;-82
2024/02/05 10:24:21;;;;;;;0.20;0.20;;;5.20;99.90;;;;;;5006459;28;20031;-81
2024/02/05 10:26:47;;;;;;;0.10;0.10;;;5.50;99.90;;;;;;5009656;28;20811;-83
2024/02/05 10:29:13;;;;;;;0.75;0.75;;;5.60;99.90;;;;;;5016348;28;20156;-84
2024/02/05 10:31:49;;;;;;;0.10;0.10;;;5.70;99.90;;;;;;5024544;28;20029;-84
2024/02/05 10:34:22;;;;;;;0.10;0.10;;;5.70;99.90;;;;;;5006957;28;20049;-83
2024/02/05 10:36:49;;;;;;;0.10;0.10;;;5.90;99.90;;;;;;5019616;28;20037;-81
2024/02/05 10:39:22;;;;;;;0.40;0.40;;;6.00;99.90;;;;;;5013521;28;20068;-81
2024/02/05 10:41:52;;;;;;;0.32;0.32;;;5.80;99.90;;;;;;5047799;28;20042;-88
2024/02/05 10:44:18;;;;;;;0.00;0.00;;;6.00;99.90;;;;;;5009182;28;20942;-82
2024/02/05 10:46:45;;;;;;;0.10;0.10;;;6.20;99.90;;;;;;5012281;28;20028;-81
2024/02/05 10:49:12;;;;;;;0.10;0.10;;;6.20;99.90;;;;;;5015426;28;20033;-83
2024/02/05 10:51:39;;;;;;;0.10;0.10;;;6.10;99.90;;;;;;5015008;28;20026;-83
2024/02/05 10:54:05;;;;;;;0.38;0.38;;;6.30;99.90;;;;;;5012996;28;20104;-82
2024/02/05 10:56:31;;;;;;;7.00;2.07;;;6.30;99.90;;;;;;5016168;28;20025;-82
2024/02/05 10:58:59;;;;;;;0.10;0.10;;;6.10;99.90;;;;;;5020635;28;20032;-83
2024/02/05 11:01:29;;;;;;;0.10;0.10;;;5.90;99.90;;;;;;5009372;28;20041;-82
2024/02/05 11:04:01;;;;;;;8.20;2.00;;;6.10;99.90;;;;;;5009835;28;20041;-83
2024/02/05 11:06:34;;;;;;;0.10;0.10;;;6.10;99.90;;;;;;5015838;28;20113;-82
2024/02/05 11:09:04;;;;;;;0.10;0.10;;;6.40;99.90;;;;;;5011183;28;20204;-82
2024/02/05 11:11:32;;;;;;;0.63;0.63;;;6.60;99.90;;;;;;5012143;28;20032;-82
2024/02/05 11:14:02;;;;;;;0.10;0.10;;;6.50;99.90;;;;;;5008259;28;20701;-82
2024/02/05 11:16:30;;;;;;;0.10;0.10;;;6.60;99.90;;;;;;5009728;28;20022;-83
2024/02/05 11:18:59;;;;;;;0.13;0.13;;;6.80;99.90;;;;;;5011570;28;20030;-81
2024/02/05 11:21:30;;;;;;;0.65;0.65;;;7.10;99.90;;;;;;5012525;28;20032;-83
2024/02/05 11:23:58;;;;;;;0.10;0.10;;;7.10;99.90;;;;;;5006226;28;20109;-82
2024/02/05 11:26:27;;;;;;;0.10;0.10;;;7.20;99.90;;;;;;5008334;28;20167;-83
2024/02/05 11:28:53;;;;;;;0.10;0.10;;;7.30;99.90;;;;;;5012149;28;20044;-82
2024/02/05 11:31:24;;;;;;;0.10;0.10;;;7.40;99.90;;;;;;5012167;28;20036;-83
2024/02/05 11:34:02;;;;;;;0.10;0.10;;;7.50;99.90;;;;;;5009818;28;20038;-83
2024/02/05 11:36:28;;;;;;;0.00;0.00;;;7.60;99.90;;;;;;5011375;28;20037;-82
2024/02/05 11:39:07;;;;;;;0.10;0.10;;;7.70;99.90;;;;;;5006621;28;20026;-83
2024/02/05 11:41:33;;;;;;;0.45;0.45;;;7.70;99.90;;;;;;5007718;28;20034;-83
2024/02/05 11:44:06;;;;;;;0.10;0.10;;;7.80;99.90;;;;;;5010627;28;20161;-83
2024/02/05 11:46:33;;;;;;;0.10;0.10;;;7.70;99.90;;;;;;5006806;28;20107;-83
2024/02/05 11:48:59;;;;;;;0.10;0.10;;;7.70;99.90;;;;;;5007718;28;20034;-83
2024/02/05 11:51:24;;;;;;;0.10;0.10;;;7.70;99.90;;;;;;5008031;28;20614;-83
2024/02/05 11:53:54;;;;;;;1.17;1.10;;;7.70;99.90;;;;;;5006988;28;20471;-82
2024/02/05 11:56:20;;;;;;;0.10;0.10;;;7.70;99.90;;;;;;5008541;28;20029;-83
2024/02/05 11:58:46;;;;;;;0.10;0.10;;;7.80;99.90;;;;;;5003130;28;20036;-83
2024/02/05 12:01:14;;;;;;;4.10;1.90;;;7.80;99.90;;;;;;5009129;28;20030;-82
2024/02/05 12:03:40;;;;;;;0.10;0.10;;;7.80;99.90;;;;;;5007330;28;20072;-84
2024/02/05 12:06:06;;;;;;;0.10;0.10;;;7.80;99.90;;;;;;5014570;28;20038;-84
2024/02/05 12:08:32;;;;;;;0.20;0.20;;;7.60;99.90;;;;;;5012825;28;20037;-86
2024/02/05 12:10:59;;;;;;;0.03;0.03;;;7.50;99.90;;;;;;5011166;28;20112;-84
2024/02/05 12:13:25;;;;;;;0.00;0.00;;;7.60;99.90;;;;;;5008094;28;20034;-84
2024/02/05 12:15:50;;;;;;;0.30;0.30;;;7.70;99.90;;;;;;5013785;28;20037;-84
2024/02/05 12:18:16;;;;;;;0.10;0.10;;;7.60;99.90;;;;;;5019155;28;20033;-84
2024/02/05 12:20:42;;;;;;;0.03;0.03;;;7.50;99.90;;;;;;5009435;28;20034;-84
2024/02/05 12:23:07;;;;;;;0.10;0.10;;;7.40;99.90;;;;;;5008424;28;20802;-83
2024/02/05 12:25:34;;;;;;;0.10;0.10;;;7.20;99.90;;;;;;5003406;28;20029;-83
2024/02/05 12:28:00;;;;;;;0.15;0.15;;;7.30;99.90;;;;;;5012302;28;20037;-81
2024/02/05 12:30:25;;;;;;;0.10;0.10;;;7.30;99.90;;;;;;5005125;28;20038;-83
2024/02/05 12:32:55;;;;;;;0.00;0.00;;;7.40;99.90;;;;;;5009118;28;20033;-85
2024/02/05 12:35:22;;;;;;;0.10;0.10;;;7.60;99.90;;;;;;5012974;28;20026;-84
2024/02/05 12:37:49;;;;;;;0.00;0.00;;;7.70;99.90;;;;;;5005702;28;20632;-85
2024/02/05 12:40:16;;;;;;;0.10;0.10;;;7.50;99.90;;;;;;5005522;28;20067;-83
2024/02/05 12:42:43;;;;;;;0.20;0.20;;;7.50;99.90;;;;;;5007240;28;20041;-85
2024/02/05 12:45:10;;;;;;;0.30;0.30;;;7.60;99.90;;;;;;5008353;28;20065;-84
2024/02/05 12:47:36;;;;;;;0.10;0.10;;;7.50;99.90;;;;;;5011113;28;20040;-83
2024/02/05 12:50:03;;;;;;;0.10;0.10;;;7.80;99.90;;;;;;5007414;28;20026;-83
2024/02/05 12:52:29;;;;;;;0.43;0.43;;;7.70;99.90;;;;;;5005739;28;20033;-84
2024/02/05 12:54:55;;;;;;;;;;;7.60;99.90;;;;;;5004057;28;20028;-85